EGEO/OBN METAR and TAF weather

Enter ICAO airport designator
Station Type Date Time Source
EGEO METAR 2022/11/30 15:50 UTC NOAA

EGEO 301550Z 12008KT 9999 SCT025 08/05 Q1022


Station Type Date Time Source
EGEO Decoded METAR 2022/11/30 15:50 UTC NOAA

Station name not available
Nov 30, 2022 - 10:50 AM EST / 2022.11.30 1550 UTC
Wind: from the ESE (120 degrees) at 9 MPH (8 KT):0
Visibility: greater than 7 mile(s):0
Sky conditions: partly cloudy
Temperature: 46 F (8 C)
Dew Point: 41 F (5 C)
Relative Humidity: 81%
Pressure (altimeter): 30.18 in. Hg (1022 hPa)
ob: EGEO 301550Z 12008KT 9999 SCT025 08/05 Q1022
cycle: 16

Station Type Date Time Source
EGEO TAF UTC NOAA

Error!

Example: see airport list